sensor_id;sensor_type;location;lat;lon;timestamp;P1;durP1;ratioP1;P2;durP2;ratioP2
25341;SDS011;13298;48.792;9.154;2024-01-15T00:00:13;14.20;;;6.03;;
25341;SDS011;13298;48.792;9.154;2024-01-15T00:02:39;16.33;;;5.90;;
25341;SDS011;13298;48.792;9.154;2024-01-15T00:05:05;18.05;;;6.82;;
25341;SDS011;13298;48.792;9.154;2024-01-15T00:07:31;17.10;;;5.85;;
25341;SDS011;13298;48.792;9.154;2024-01-15T00:09:57;17.20;;;6.20;;
25341;SDS011;13298;48.792;9.154;2024-01-15T00:12:22;17.13;;;6.47;;
25341;SDS011;13298;48.792;9.154;2024-01-15T00:14:48;18.98;;;6.50;;
25341;SDS011;13298;48.792;9.154;2024-01-15T00:17:14;18.60;;;6.68;;
25341;SDS011;13298;48.792;9.154;2024-01-15T00:19:39;17.48;;;6.05;;
25341;SDS011;13298;48.792;9.154;2024-01-15T00:22:05;20.98;;;7.18;;
25341;SDS011;13298;48.792;9.154;2024-01-15T00:24:31;18.65;;;6.20;;
25341;SDS011;13298;48.792;9.154;2024-01-15T00:26:56;18.70;;;6.57;;
25341;SDS011;13298;48.792;9.154;2024-01-15T00:29:22;18.08;;;6.63;;
25341;SDS011;13298;48.792;9.154;2024-01-15T00:31:48;16.33;;;5.93;;
25341;SDS011;13298;48.792;9.154;2024-01-15T00:34:13;21.50;;;7.38;;
25341;SDS011;13298;48.792;9.154;2024-01-15T00:36:39;18.75;;;6.55;;
25341;SDS011;13298;48.792;9.154;2024-01-15T00:39:05;18.65;;;6.25;;
25341;SDS011;13298;48.792;9.154;2024-01-15T00:41:31;17.15;;;6.35;;
25341;SDS011;13298;48.792;9.154;2024-01-15T00:43:56;15.73;;;5.68;;
25341;SDS011;13298;48.792;9.154;2024-01-15T00:46:22;18.67;;;5.88;;
25341;SDS011;13298;48.792;9.154;2024-01-15T00:48:48;18.83;;;6.55;;
25341;SDS011;13298;48.792;9.154;2024-01-15T00:51:13;17.42;;;5.72;;
25341;SDS011;13298;48.792;9.154;2024-01-15T00:53:39;16.17;;;6.25;;
25341;SDS011;13298;48.792;9.154;2024-01-15T00:56:05;14.88;;;5.45;;
25341;SDS011;13298;48.792;9.154;2024-01-15T00:58:31;15.75;;;6.40;;
25341;SDS011;13298;48.792;9.154;2024-01-15T01:00:56;16.15;;;6.28;;
25341;SDS011;13298;48.792;9.154;2024-01-15T01:03:22;13.98;;;6.00;;
25341;SDS011;13298;48.792;9.154;2024-01-15T01:05:48;16.15;;;5.82;;
25341;SDS011;13298;48.792;9.154;2024-01-15T01:08:15;17.35;;;6.78;;
25341;SDS011;13298;48.792;9.154;2024-01-15T01:10:40;14.30;;;5.57;;
25341;SDS011;13298;48.792;9.154;2024-01-15T01:13:07;18.48;;;6.10;;
25341;SDS011;13298;48.792;9.154;2024-01-15T01:15:34;20.50;;;6.50;;
25341;SDS011;13298;48.792;9.154;2024-01-15T01:17:59;16.48;;;6.45;;
25341;SDS011;13298;48.792;9.154;2024-01-15T01:20:25;18.58;;;6.55;;
25341;SDS011;13298;48.792;9.154;2024-01-15T01:22:51;15.90;;;5.90;;
25341;SDS011;13298;48.792;9.154;2024-01-15T01:25:16;13.68;;;5.35;;
25341;SDS011;13298;48.792;9.154;2024-01-15T01:27:42;15.90;;;5.90;;
25341;SDS011;13298;48.792;9.154;2024-01-15T01:30:08;16.00;;;5.93;;
25341;SDS011;13298;48.792;9.154;2024-01-15T01:32:34;14.00;;;6.05;;
25341;SDS011;13298;48.792;9.154;2024-01-15T01:35:00;14.93;;;5.70;;
25341;SDS011;13298;48.792;9.154;2024-01-15T01:37:26;16.15;;;6.38;;
25341;SDS011;13298;48.792;9.154;2024-01-15T01:39:52;13.50;;;5.53;;
25341;SDS011;13298;48.792;9.154;2024-01-15T01:42:17;16.80;;;5.65;;
25341;SDS011;13298;48.792;9.154;2024-01-15T01:44:43;18.50;;;6.05;;
25341;SDS011;13298;48.792;9.154;2024-01-15T01:47:09;18.63;;;5.80;;
25341;SDS011;13298;48.792;9.154;2024-01-15T01:49:35;14.10;;;5.70;;
25341;SDS011;13298;48.792;9.154;2024-01-15T01:52:02;14.18;;;5.63;;
25341;SDS011;13298;48.792;9.154;2024-01-15T01:54:34;15.00;;;5.57;;
25341;SDS011;13298;48.792;9.154;2024-01-15T01:57:02;17.27;;;5.88;;
25341;SDS011;13298;48.792;9.154;2024-01-15T01:59:28;16.05;;;5.93;;
25341;SDS011;13298;48.792;9.154;2024-01-15T02:01:55;20.35;;;5.85;;
25341;SDS011;13298;48.792;9.154;2024-01-15T02:04:23;16.23;;;6.05;;
25341;SDS011;13298;48.792;9.154;2024-01-15T02:06:50;14.63;;;5.63;;
25341;SDS011;13298;48.792;9.154;2024-01-15T02:09:16;14.45;;;5.88;;
25341;SDS011;13298;48.792;9.154;2024-01-15T02:11:43;13.75;;;5.78;;
25341;SDS011;13298;48.792;9.154;2024-01-15T02:14:12;14.68;;;5.57;;
25341;SDS011;13298;48.792;9.154;2024-01-15T02:16:37;16.50;;;5.97;;
25341;SDS011;13298;48.792;9.154;2024-01-15T02:19:03;17.95;;;6.20;;
25341;SDS011;13298;48.792;9.154;2024-01-15T02:21:29;16.98;;;6.10;;
25341;SDS011;13298;48.792;9.154;2024-01-15T02:23:56;16.02;;;5.10;;
25341;SDS011;13298;48.792;9.154;2024-01-15T02:26:22;15.05;;;5.95;;
25341;SDS011;13298;48.792;9.154;2024-01-15T02:28:48;16.48;;;5.68;;
25341;SDS011;13298;48.792;9.154;2024-01-15T02:31:15;15.38;;;5.25;;
25341;SDS011;13298;48.792;9.154;2024-01-15T02:33:42;14.25;;;5.47;;
25341;SDS011;13298;48.792;9.154;2024-01-15T02:36:08;16.38;;;5.47;;
25341;SDS011;13298;48.792;9.154;2024-01-15T02:38:35;12.60;;;5.18;;
25341;SDS011;13298;48.792;9.154;2024-01-15T02:41:01;10.43;;;4.20;;
25341;SDS011;13298;48.792;9.154;2024-01-15T02:43:27;12.80;;;4.88;;
25341;SDS011;13298;48.792;9.154;2024-01-15T02:45:52;14.02;;;5.85;;
25341;SDS011;13298;48.792;9.154;2024-01-15T02:48:18;13.80;;;5.78;;
25341;SDS011;13298;48.792;9.154;2024-01-15T02:50:44;13.65;;;5.05;;
25341;SDS011;13298;48.792;9.154;2024-01-15T02:53:09;12.23;;;5.15;;
25341;SDS011;13298;48.792;9.154;2024-01-15T02:55:35;13.43;;;4.93;;
25341;SDS011;13298;48.792;9.154;2024-01-15T02:58:01;15.23;;;5.60;;
25341;SDS011;13298;48.792;9.154;2024-01-15T03:00:26;14.73;;;5.18;;
25341;SDS011;13298;48.792;9.154;2024-01-15T03:02:52;12.60;;;5.10;;
25341;SDS011;13298;48.792;9.154;2024-01-15T03:05:18;13.32;;;5.25;;
25341;SDS011;13298;48.792;9.154;2024-01-15T03:07:43;19.02;;;5.25;;
25341;SDS011;13298;48.792;9.154;2024-01-15T03:10:09;13.80;;;5.53;;
25341;SDS011;13298;48.792;9.154;2024-01-15T03:12:35;14.27;;;5.38;;
25341;SDS011;13298;48.792;9.154;2024-01-15T03:15:01;11.75;;;5.18;;
25341;SDS011;13298;48.792;9.154;2024-01-15T03:17:26;14.57;;;5.15;;
25341;SDS011;13298;48.792;9.154;2024-01-15T03:19:52;14.23;;;5.43;;
25341;SDS011;13298;48.792;9.154;2024-01-15T03:22:18;13.35;;;5.25;;
25341;SDS011;13298;48.792;9.154;2024-01-15T03:24:44;16.38;;;5.30;;
25341;SDS011;13298;48.792;9.154;2024-01-15T03:27:09;15.40;;;5.47;;
25341;SDS011;13298;48.792;9.154;2024-01-15T03:29:35;12.23;;;4.72;;
25341;SDS011;13298;48.792;9.154;2024-01-15T03:32:01;15.98;;;5.55;;
25341;SDS011;13298;48.792;9.154;2024-01-15T03:34:26;17.30;;;5.43;;
25341;SDS011;13298;48.792;9.154;2024-01-15T03:36:52;14.93;;;5.15;;
25341;SDS011;13298;48.792;9.154;2024-01-15T03:39:18;13.55;;;4.50;;
25341;SDS011;13298;48.792;9.154;2024-01-15T03:41:43;13.82;;;4.72;;
25341;SDS011;13298;48.792;9.154;2024-01-15T03:44:09;13.07;;;4.80;;
25341;SDS011;13298;48.792;9.154;2024-01-15T03:46:35;14.40;;;5.10;;
25341;SDS011;13298;48.792;9.154;2024-01-15T03:49:01;13.75;;;5.47;;
25341;SDS011;13298;48.792;9.154;2024-01-15T03:51:27;13.07;;;5.03;;
25341;SDS011;13298;48.792;9.154;2024-01-15T03:53:52;14.85;;;4.70;;
25341;SDS011;13298;48.792;9.154;2024-01-15T03:56:18;13.55;;;5.70;;
25341;SDS011;13298;48.792;9.154;2024-01-15T03:58:44;16.23;;;4.97;;
25341;SDS011;13298;48.792;9.154;2024-01-15T04:01:10;9.73;;;4.65;;
25341;SDS011;13298;48.792;9.154;2024-01-15T04:03:36;12.18;;;4.70;;
25341;SDS011;13298;48.792;9.154;2024-01-15T04:06:03;12.63;;;4.72;;
25341;SDS011;13298;48.792;9.154;2024-01-15T04:08:29;14.27;;;4.93;;
25341;SDS011;13298;48.792;9.154;2024-01-15T04:10:55;15.85;;;4.97;;
25341;SDS011;13298;48.792;9.154;2024-01-15T04:13:21;12.93;;;4.85;;
25341;SDS011;13298;48.792;9.154;2024-01-15T04:15:47;16.23;;;5.20;;
25341;SDS011;13298;48.792;9.154;2024-01-15T04:18:12;14.52;;;4.53;;
25341;SDS011;13298;48.792;9.154;2024-01-15T04:20:38;13.68;;;4.82;;
25341;SDS011;13298;48.792;9.154;2024-01-15T04:23:04;11.60;;;4.47;;
25341;SDS011;13298;48.792;9.154;2024-01-15T04:25:30;14.43;;;4.32;;
25341;SDS011;13298;48.792;9.154;2024-01-15T04:27:56;12.80;;;4.97;;
25341;SDS011;13298;48.792;9.154;2024-01-15T04:30:22;13.93;;;5.05;;
25341;SDS011;13298;48.792;9.154;2024-01-15T04:32:47;12.23;;;4.75;;
25341;SDS011;13298;48.792;9.154;2024-01-15T04:35:13;11.73;;;4.40;;
25341;SDS011;13298;48.792;9.154;2024-01-15T04:37:42;15.20;;;4.53;;
25341;SDS011;13298;48.792;9.154;2024-01-15T04:40:08;9.50;;;4.43;;
25341;SDS011;13298;48.792;9.154;2024-01-15T04:42:34;13.10;;;5.18;;
25341;SDS011;13298;48.792;9.154;2024-01-15T04:45:00;13.85;;;4.55;;
25341;SDS011;13298;48.792;9.154;2024-01-15T04:47:26;11.20;;;4.53;;
25341;SDS011;13298;48.792;9.154;2024-01-15T04:49:51;13.07;;;4.90;;
25341;SDS011;13298;48.792;9.154;2024-01-15T04:52:17;13.07;;;4.85;;
25341;SDS011;13298;48.792;9.154;2024-01-15T04:54:43;10.85;;;4.85;;
25341;SDS011;13298;48.792;9.154;2024-01-15T04:57:08;14.77;;;5.25;;
25341;SDS011;13298;48.792;9.154;2024-01-15T04:59:34;13.35;;;5.35;;
25341;SDS011;13298;48.792;9.154;2024-01-15T05:02:00;15.35;;;5.65;;
25341;SDS011;13298;48.792;9.154;2024-01-15T05:04:25;11.23;;;4.60;;
25341;SDS011;13298;48.792;9.154;2024-01-15T05:06:53;13.27;;;5.35;;
25341;SDS011;13298;48.792;9.154;2024-01-15T05:09:20;12.85;;;4.63;;
25341;SDS011;13298;48.792;9.154;2024-01-15T05:11:46;15.13;;;5.32;;
25341;SDS011;13298;48.792;9.154;2024-01-15T05:14:11;14.73;;;5.32;;
25341;SDS011;13298;48.792;9.154;2024-01-15T05:16:47;12.40;;;4.95;;
25341;SDS011;13298;48.792;9.154;2024-01-15T05:19:13;10.60;;;4.25;;
25341;SDS011;13298;48.792;9.154;2024-01-15T05:21:39;15.20;;;4.72;;
25341;SDS011;13298;48.792;9.154;2024-01-15T05:24:05;12.68;;;4.18;;
25341;SDS011;13298;48.792;9.154;2024-01-15T05:26:31;15.18;;;5.05;;
25341;SDS011;13298;48.792;9.154;2024-01-15T05:28:56;12.20;;;5.00;;
25341;SDS011;13298;48.792;9.154;2024-01-15T05:31:22;13.10;;;5.30;;
25341;SDS011;13298;48.792;9.154;2024-01-15T05:33:48;11.60;;;4.35;;
25341;SDS011;13298;48.792;9.154;2024-01-15T05:36:14;10.13;;;4.38;;
25341;SDS011;13298;48.792;9.154;2024-01-15T05:38:39;13.40;;;5.25;;
25341;SDS011;13298;48.792;9.154;2024-01-15T05:41:05;10.57;;;3.95;;
25341;SDS011;13298;48.792;9.154;2024-01-15T05:43:31;15.23;;;4.95;;
25341;SDS011;13298;48.792;9.154;2024-01-15T05:45:57;12.10;;;4.57;;
25341;SDS011;13298;48.792;9.154;2024-01-15T05:48:23;9.45;;;4.30;;
25341;SDS011;13298;48.792;9.154;2024-01-15T05:50:48;10.07;;;4.80;;
25341;SDS011;13298;48.792;9.154;2024-01-15T05:53:14;12.50;;;4.38;;
25341;SDS011;13298;48.792;9.154;2024-01-15T05:55:40;9.20;;;4.32;;
25341;SDS011;13298;48.792;9.154;2024-01-15T05:58:06;9.25;;;4.45;;
25341;SDS011;13298;48.792;9.154;2024-01-15T06:00:32;12.55;;;4.72;;
25341;SDS011;13298;48.792;9.154;2024-01-15T06:03:01;9.02;;;4.57;;
25341;SDS011;13298;48.792;9.154;2024-01-15T06:05:27;15.02;;;4.95;;
25341;SDS011;13298;48.792;9.154;2024-01-15T06:07:52;12.52;;;5.00;;
25341;SDS011;13298;48.792;9.154;2024-01-15T06:10:18;12.75;;;5.32;;
25341;SDS011;13298;48.792;9.154;2024-01-15T06:12:44;10.43;;;4.80;;
25341;SDS011;13298;48.792;9.154;2024-01-15T06:15:10;16.02;;;5.47;;
25341;SDS011;13298;48.792;9.154;2024-01-15T06:17:36;11.15;;;5.15;;
25341;SDS011;13298;48.792;9.154;2024-01-15T06:20:02;12.98;;;5.22;;
25341;SDS011;13298;48.792;9.154;2024-01-15T06:22:28;15.13;;;5.60;;
25341;SDS011;13298;48.792;9.154;2024-01-15T06:24:54;14.48;;;5.30;;
25341;SDS011;13298;48.792;9.154;2024-01-15T06:27:20;11.18;;;5.13;;
25341;SDS011;13298;48.792;9.154;2024-01-15T06:29:46;13.18;;;4.95;;
25341;SDS011;13298;48.792;9.154;2024-01-15T06:32:12;14.57;;;4.88;;
25341;SDS011;13298;48.792;9.154;2024-01-15T06:34:38;12.85;;;4.70;;
25341;SDS011;13298;48.792;9.154;2024-01-15T06:37:04;11.15;;;4.85;;
25341;SDS011;13298;48.792;9.154;2024-01-15T06:39:30;15.55;;;5.80;;
25341;SDS011;13298;48.792;9.154;2024-01-15T06:41:56;10.68;;;4.78;;
25341;SDS011;13298;48.792;9.154;2024-01-15T06:44:22;9.85;;;4.43;;
25341;SDS011;13298;48.792;9.154;2024-01-15T06:46:47;10.40;;;4.32;;
25341;SDS011;13298;48.792;9.154;2024-01-15T06:49:13;13.02;;;5.53;;
25341;SDS011;13298;48.792;9.154;2024-01-15T06:51:39;12.57;;;4.45;;
25341;SDS011;13298;48.792;9.154;2024-01-15T06:54:05;10.80;;;4.93;;
25341;SDS011;13298;48.792;9.154;2024-01-15T06:56:31;10.65;;;4.57;;
25341;SDS011;13298;48.792;9.154;2024-01-15T06:58:57;9.98;;;4.57;;
25341;SDS011;13298;48.792;9.154;2024-01-15T07:01:23;14.32;;;5.07;;
25341;SDS011;13298;48.792;9.154;2024-01-15T07:03:49;10.73;;;5.10;;
25341;SDS011;13298;48.792;9.154;2024-01-15T07:06:15;12.23;;;4.93;;
25341;SDS011;13298;48.792;9.154;2024-01-15T07:08:42;12.77;;;5.15;;
25341;SDS011;13298;48.792;9.154;2024-01-15T07:11:08;10.80;;;4.70;;
25341;SDS011;13298;48.792;9.154;2024-01-15T07:13:33;10.55;;;4.70;;
25341;SDS011;13298;48.792;9.154;2024-01-15T07:16:01;10.38;;;4.82;;
25341;SDS011;13298;48.792;9.154;2024-01-15T07:18:27;12.20;;;4.47;;
25341;SDS011;13298;48.792;9.154;2024-01-15T07:20:52;11.95;;;5.25;;
25341;SDS011;13298;48.792;9.154;2024-01-15T07:23:18;13.32;;;4.65;;
25341;SDS011;13298;48.792;9.154;2024-01-15T07:25:44;13.43;;;4.88;;
25341;SDS011;13298;48.792;9.154;2024-01-15T07:28:09;8.82;;;4.45;;
25341;SDS011;13298;48.792;9.154;2024-01-15T07:30:35;10.43;;;4.70;;
25341;SDS011;13298;48.792;9.154;2024-01-15T07:33:03;12.93;;;4.47;;
25341;SDS011;13298;48.792;9.154;2024-01-15T07:35:29;10.43;;;4.05;;
25341;SDS011;13298;48.792;9.154;2024-01-15T07:37:55;12.95;;;5.32;;
25341;SDS011;13298;48.792;9.154;2024-01-15T07:40:21;11.55;;;5.07;;
25341;SDS011;13298;48.792;9.154;2024-01-15T07:42:46;10.35;;;4.78;;
25341;SDS011;13298;48.792;9.154;2024-01-15T07:45:12;12.32;;;4.22;;
25341;SDS011;13298;48.792;9.154;2024-01-15T07:47:38;14.45;;;5.20;;
25341;SDS011;13298;48.792;9.154;2024-01-15T07:50:04;9.65;;;4.20;;
25341;SDS011;13298;48.792;9.154;2024-01-15T07:52:30;12.07;;;4.80;;
25341;SDS011;13298;48.792;9.154;2024-01-15T07:54:56;12.40;;;4.55;;
25341;SDS011;13298;48.792;9.154;2024-01-15T07:57:22;12.57;;;4.55;;
25341;SDS011;13298;48.792;9.154;2024-01-15T07:59:47;10.82;;;4.78;;
25341;SDS011;13298;48.792;9.154;2024-01-15T08:02:13;9.73;;;4.45;;
25341;SDS011;13298;48.792;9.154;2024-01-15T08:04:39;9.15;;;4.60;;
25341;SDS011;13298;48.792;9.154;2024-01-15T08:07:05;12.65;;;4.65;;
25341;SDS011;13298;48.792;9.154;2024-01-15T08:09:32;10.10;;;4.10;;
25341;SDS011;13298;48.792;9.154;2024-01-15T08:11:59;12.35;;;4.78;;
25341;SDS011;13298;48.792;9.154;2024-01-15T08:14:25;12.57;;;4.78;;
25341;SDS011;13298;48.792;9.154;2024-01-15T08:16:50;11.05;;;4.80;;
25341;SDS011;13298;48.792;9.154;2024-01-15T08:19:16;11.30;;;4.45;;
25341;SDS011;13298;48.792;9.154;2024-01-15T08:21:42;10.88;;;4.18;;
25341;SDS011;13298;48.792;9.154;2024-01-15T08:24:07;9.30;;;4.07;;
25341;SDS011;13298;48.792;9.154;2024-01-15T08:26:33;14.25;;;4.75;;
25341;SDS011;13298;48.792;9.154;2024-01-15T08:28:59;10.38;;;4.45;;
25341;SDS011;13298;48.792;9.154;2024-01-15T08:31:25;9.85;;;4.60;;
25341;SDS011;13298;48.792;9.154;2024-01-15T08:33:51;13.02;;;4.95;;
25341;SDS011;13298;48.792;9.154;2024-01-15T08:36:16;9.95;;;4.45;;
25341;SDS011;13298;48.792;9.154;2024-01-15T08:38:43;10.02;;;4.45;;
25341;SDS011;13298;48.792;9.154;2024-01-15T08:41:09;11.15;;;4.68;;
25341;SDS011;13298;48.792;9.154;2024-01-15T08:43:35;9.38;;;3.95;;
25341;SDS011;13298;48.792;9.154;2024-01-15T08:46:01;10.68;;;3.80;;
25341;SDS011;13298;48.792;9.154;2024-01-15T08:48:27;8.40;;;3.85;;
25341;SDS011;13298;48.792;9.154;2024-01-15T08:50:54;7.78;;;3.58;;
25341;SDS011;13298;48.792;9.154;2024-01-15T08:53:20;10.52;;;4.28;;
25341;SDS011;13298;48.792;9.154;2024-01-15T08:55:46;8.98;;;3.67;;
25341;SDS011;13298;48.792;9.154;2024-01-15T08:58:12;7.65;;;3.60;;
25341;SDS011;13298;48.792;9.154;2024-01-15T09:00:38;7.38;;;3.45;;
25341;SDS011;13298;48.792;9.154;2024-01-15T09:03:04;8.05;;;3.70;;
25341;SDS011;13298;48.792;9.154;2024-01-15T09:05:30;8.82;;;3.30;;
25341;SDS011;13298;48.792;9.154;2024-01-15T09:07:56;9.77;;;3.80;;
25341;SDS011;13298;48.792;9.154;2024-01-15T09:10:22;9.15;;;3.45;;
25341;SDS011;13298;48.792;9.154;2024-01-15T09:12:47;7.13;;;3.28;;
25341;SDS011;13298;48.792;9.154;2024-01-15T09:15:16;6.88;;;3.08;;
25341;SDS011;13298;48.792;9.154;2024-01-15T09:17:42;8.35;;;3.78;;
25341;SDS011;13298;48.792;9.154;2024-01-15T09:20:08;10.88;;;3.83;;
25341;SDS011;13298;48.792;9.154;2024-01-15T09:22:34;11.18;;;3.95;;
25341;SDS011;13298;48.792;9.154;2024-01-15T09:25:02;5.00;;;2.72;;
25341;SDS011;13298;48.792;9.154;2024-01-15T09:27:29;7.60;;;3.22;;
25341;SDS011;13298;48.792;9.154;2024-01-15T09:29:54;7.13;;;2.90;;
25341;SDS011;13298;48.792;9.154;2024-01-15T09:32:20;7.97;;;3.05;;
25341;SDS011;13298;48.792;9.154;2024-01-15T09:34:46;6.82;;;3.35;;
25341;SDS011;13298;48.792;9.154;2024-01-15T09:37:13;7.32;;;3.00;;
25341;SDS011;13298;48.792;9.154;2024-01-15T09:39:39;6.78;;;2.80;;
25341;SDS011;13298;48.792;9.154;2024-01-15T09:42:05;6.40;;;2.65;;
25341;SDS011;13298;48.792;9.154;2024-01-15T09:44:31;8.13;;;2.97;;
25341;SDS011;13298;48.792;9.154;2024-01-15T09:46:57;5.97;;;3.08;;
25341;SDS011;13298;48.792;9.154;2024-01-15T09:49:23;6.15;;;2.60;;
25341;SDS011;13298;48.792;9.154;2024-01-15T09:51:49;5.70;;;2.70;;
25341;SDS011;13298;48.792;9.154;2024-01-15T09:54:18;8.80;;;2.97;;
25341;SDS011;13298;48.792;9.154;2024-01-15T09:56:47;7.60;;;3.08;;
25341;SDS011;13298;48.792;9.154;2024-01-15T09:59:16;4.90;;;2.28;;
25341;SDS011;13298;48.792;9.154;2024-01-15T10:01:43;8.25;;;3.08;;
25341;SDS011;13298;48.792;9.154;2024-01-15T10:04:12;6.72;;;3.05;;
25341;SDS011;13298;48.792;9.154;2024-01-15T10:06:39;4.80;;;2.80;;
25341;SDS011;13298;48.792;9.154;2024-01-15T10:09:10;5.93;;;3.00;;
25341;SDS011;13298;48.792;9.154;2024-01-15T10:11:41;6.93;;;3.00;;
25341;SDS011;13298;48.792;9.154;2024-01-15T10:14:08;7.03;;;3.00;;
25341;SDS011;13298;48.792;9.154;2024-01-15T10:16:38;7.97;;;3.40;;
25341;SDS011;13298;48.792;9.154;2024-01-15T10:19:07;6.03;;;2.83;;
25341;SDS011;13298;48.792;9.154;2024-01-15T10:21:34;8.15;;;2.70;;
25341;SDS011;13298;48.792;9.154;2024-01-15T10:24:00;6.82;;;2.80;;
25341;SDS011;13298;48.792;9.154;2024-01-15T10:26:30;6.55;;;2.55;;
25341;SDS011;13298;48.792;9.154;2024-01-15T10:29:00;8.13;;;2.90;;
25341;SDS011;13298;48.792;9.154;2024-01-15T10:31:26;6.00;;;2.47;;
25341;SDS011;13298;48.792;9.154;2024-01-15T10:33:53;6.53;;;2.58;;
25341;SDS011;13298;48.792;9.154;2024-01-15T10:36:19;9.27;;;3.22;;
25341;SDS011;13298;48.792;9.154;2024-01-15T10:38:45;7.07;;;2.65;;
25341;SDS011;13298;48.792;9.154;2024-01-15T10:41:11;9.18;;;2.92;;
25341;SDS011;13298;48.792;9.154;2024-01-15T10:43:37;5.38;;;2.53;;
25341;SDS011;13298;48.792;9.154;2024-01-15T10:46:02;6.35;;;2.80;;
25341;SDS011;13298;48.792;9.154;2024-01-15T10:48:29;6.53;;;2.83;;
25341;SDS011;13298;48.792;9.154;2024-01-15T10:50:56;5.40;;;2.50;;
25341;SDS011;13298;48.792;9.154;2024-01-15T10:53:23;8.95;;;2.78;;
25341;SDS011;13298;48.792;9.154;2024-01-15T10:55:50;8.68;;;2.50;;
25341;SDS011;13298;48.792;9.154;2024-01-15T10:58:20;7.32;;;2.45;;
25341;SDS011;13298;48.792;9.154;2024-01-15T11:00:48;5.88;;;2.83;;
25341;SDS011;13298;48.792;9.154;2024-01-15T11:03:14;7.80;;;2.97;;
25341;SDS011;13298;48.792;9.154;2024-01-15T11:05:43;5.75;;;2.53;;
25341;SDS011;13298;48.792;9.154;2024-01-15T11:08:09;4.47;;;2.38;;
25341;SDS011;13298;48.792;9.154;2024-01-15T11:10:39;5.68;;;2.55;;
25341;SDS011;13298;48.792;9.154;2024-01-15T11:13:08;6.60;;;2.88;;
25341;SDS011;13298;48.792;9.154;2024-01-15T11:15:56;7.35;;;2.80;;
25341;SDS011;13298;48.792;9.154;2024-01-15T11:18:28;6.72;;;2.42;;
25341;SDS011;13298;48.792;9.154;2024-01-15T11:38:15;7.13;;;3.17;;
25341;SDS011;13298;48.792;9.154;2024-01-15T11:40:18;7.05;;;3.22;;
25341;SDS011;13298;48.792;9.154;2024-01-15T11:42:46;6.53;;;2.88;;
25341;SDS011;13298;48.792;9.154;2024-01-15T11:45:13;8.32;;;3.67;;
25341;SDS011;13298;48.792;9.154;2024-01-15T11:50:33;6.10;;;3.08;;
25341;SDS011;13298;48.792;9.154;2024-01-15T11:53:00;8.38;;;3.33;;
25341;SDS011;13298;48.792;9.154;2024-01-15T11:55:35;8.20;;;3.28;;
25341;SDS011;13298;48.792;9.154;2024-01-15T11:58:10;8.50;;;3.28;;
25341;SDS011;13298;48.792;9.154;2024-01-15T12:00:49;6.60;;;3.13;;
25341;SDS011;13298;48.792;9.154;2024-01-15T12:03:17;5.20;;;2.65;;
25341;SDS011;13298;48.792;9.154;2024-01-15T12:05:46;6.63;;;3.10;;
25341;SDS011;13298;48.792;9.154;2024-01-15T12:08:12;6.47;;;3.25;;
25341;SDS011;13298;48.792;9.154;2024-01-15T12:10:38;6.72;;;2.85;;
25341;SDS011;13298;48.792;9.154;2024-01-15T12:13:12;5.82;;;2.92;;
25341;SDS011;13298;48.792;9.154;2024-01-15T12:15:39;8.35;;;2.88;;
25341;SDS011;13298;48.792;9.154;2024-01-15T12:18:07;5.45;;;3.22;;
25341;SDS011;13298;48.792;9.154;2024-01-15T12:20:35;7.35;;;3.05;;
25341;SDS011;13298;48.792;9.154;2024-01-15T12:23:01;7.68;;;3.33;;
25341;SDS011;13298;48.792;9.154;2024-01-15T12:25:31;6.53;;;3.20;;
25341;SDS011;13298;48.792;9.154;2024-01-15T12:27:58;7.43;;;3.60;;
25341;SDS011;13298;48.792;9.154;2024-01-15T12:30:28;4.90;;;3.05;;
25341;SDS011;13298;48.792;9.154;2024-01-15T12:32:56;6.38;;;3.40;;
25341;SDS011;13298;48.792;9.154;2024-01-15T12:35:23;6.43;;;3.22;;
25341;SDS011;13298;48.792;9.154;2024-01-15T12:37:54;8.88;;;3.63;;
25341;SDS011;13298;48.792;9.154;2024-01-15T12:40:21;7.43;;;2.83;;
25341;SDS011;13298;48.792;9.154;2024-01-15T12:42:48;8.05;;;3.42;;
25341;SDS011;13298;48.792;9.154;2024-01-15T12:45:14;7.72;;;3.33;;
25341;SDS011;13298;48.792;9.154;2024-01-15T12:47:40;6.95;;;3.40;;
25341;SDS011;13298;48.792;9.154;2024-01-15T12:50:07;9.85;;;3.15;;
25341;SDS011;13298;48.792;9.154;2024-01-15T12:52:37;8.30;;;3.30;;
25341;SDS011;13298;48.792;9.154;2024-01-15T12:55:06;7.35;;;3.05;;
25341;SDS011;13298;48.792;9.154;2024-01-15T12:57:34;9.27;;;3.30;;
25341;SDS011;13298;48.792;9.154;2024-01-15T13:00:00;6.22;;;3.15;;
25341;SDS011;13298;48.792;9.154;2024-01-15T13:02:27;7.20;;;3.67;;
25341;SDS011;13298;48.792;9.154;2024-01-15T13:04:52;7.88;;;3.60;;
25341;SDS011;13298;48.792;9.154;2024-01-15T13:07:19;6.93;;;3.53;;
25341;SDS011;13298;48.792;9.154;2024-01-15T13:09:45;8.18;;;3.38;;
25341;SDS011;13298;48.792;9.154;2024-01-15T13:12:10;10.32;;;3.80;;
25341;SDS011;13298;48.792;9.154;2024-01-15T13:14:36;6.22;;;3.20;;
25341;SDS011;13298;48.792;9.154;2024-01-15T13:17:02;8.65;;;3.38;;
25341;SDS011;13298;48.792;9.154;2024-01-15T13:19:28;6.43;;;2.90;;
25341;SDS011;13298;48.792;9.154;2024-01-15T13:21:54;6.18;;;2.78;;
25341;SDS011;13298;48.792;9.154;2024-01-15T13:24:21;11.63;;;3.00;;
25341;SDS011;13298;48.792;9.154;2024-01-15T13:26:47;6.60;;;2.80;;
25341;SDS011;13298;48.792;9.154;2024-01-15T13:29:13;4.57;;;2.78;;
25341;SDS011;13298;48.792;9.154;2024-01-15T13:31:39;7.93;;;2.90;;
25341;SDS011;13298;48.792;9.154;2024-01-15T13:34:05;9.00;;;2.78;;
25341;SDS011;13298;48.792;9.154;2024-01-15T13:36:32;7.43;;;2.83;;
25341;SDS011;13298;48.792;9.154;2024-01-15T13:38:58;5.40;;;2.72;;
25341;SDS011;13298;48.792;9.154;2024-01-15T13:41:24;7.03;;;2.97;;
25341;SDS011;13298;48.792;9.154;2024-01-15T13:43:52;7.88;;;2.90;;
25341;SDS011;13298;48.792;9.154;2024-01-15T13:46:19;8.40;;;3.00;;
25341;SDS011;13298;48.792;9.154;2024-01-15T13:48:48;5.07;;;2.50;;
25341;SDS011;13298;48.792;9.154;2024-01-15T13:51:14;6.85;;;2.88;;
25341;SDS011;13298;48.792;9.154;2024-01-15T13:53:40;8.10;;;3.03;;
25341;SDS011;13298;48.792;9.154;2024-01-15T13:56:06;4.88;;;2.30;;
25341;SDS011;13298;48.792;9.154;2024-01-15T13:58:35;9.13;;;2.80;;
25341;SDS011;13298;48.792;9.154;2024-01-15T14:01:02;5.32;;;2.30;;
25341;SDS011;13298;48.792;9.154;2024-01-15T14:03:29;6.60;;;2.47;;
25341;SDS011;13298;48.792;9.154;2024-01-15T14:05:55;6.50;;;2.63;;
25341;SDS011;13298;48.792;9.154;2024-01-15T14:08:20;6.30;;;1.88;;
25341;SDS011;13298;48.792;9.154;2024-01-15T14:10:46;4.93;;;2.40;;
25341;SDS011;13298;48.792;9.154;2024-01-15T14:13:12;6.43;;;2.67;;
25341;SDS011;13298;48.792;9.154;2024-01-15T14:15:37;4.40;;;2.42;;
25341;SDS011;13298;48.792;9.154;2024-01-15T14:18:03;6.93;;;2.60;;
25341;SDS011;13298;48.792;9.154;2024-01-15T14:20:29;9.35;;;2.58;;
25341;SDS011;13298;48.792;9.154;2024-01-15T14:22:55;7.80;;;2.63;;
25341;SDS011;13298;48.792;9.154;2024-01-15T14:25:21;4.40;;;2.15;;
25341;SDS011;13298;48.792;9.154;2024-01-15T14:27:47;4.13;;;2.20;;
25341;SDS011;13298;48.792;9.154;2024-01-15T14:30:13;3.83;;;1.98;;
25341;SDS011;13298;48.792;9.154;2024-01-15T14:32:41;4.40;;;2.00;;
25341;SDS011;13298;48.792;9.154;2024-01-15T14:35:07;3.63;;;2.03;;
25341;SDS011;13298;48.792;9.154;2024-01-15T14:37:35;5.43;;;2.45;;
25341;SDS011;13298;48.792;9.154;2024-01-15T14:40:02;4.00;;;2.60;;
25341;SDS011;13298;48.792;9.154;2024-01-15T14:42:29;6.70;;;3.10;;
25341;SDS011;13298;48.792;9.154;2024-01-15T14:44:56;5.88;;;2.70;;
25341;SDS011;13298;48.792;9.154;2024-01-15T14:47:22;7.15;;;2.95;;
25341;SDS011;13298;48.792;9.154;2024-01-15T14:49:49;8.20;;;3.55;;
25341;SDS011;13298;48.792;9.154;2024-01-15T14:52:15;6.38;;;3.58;;
25341;SDS011;13298;48.792;9.154;2024-01-15T14:54:41;6.45;;;3.78;;